sensor_id;sensor_type;location;lat;lon;timestamp;pressure;altitude;pressure_sealevel;temperature;humidity
2841;BME280;53423;49.224;12.074;2023-02-01T00:01:12;98139.63;;;4.80;71.61
2841;BME280;53423;49.224;12.074;2023-02-01T00:03:40;98135.25;;;4.91;70.28
2841;BME280;53423;49.224;12.074;2023-02-01T00:06:08;98125.56;;;4.82;70.75
2841;BME280;53423;49.224;12.074;2023-02-01T00:08:36;98124.59;;;4.94;70.75
2841;BME280;53423;49.224;12.074;2023-02-01T00:11:05;98118.84;;;5.02;70.04
2841;BME280;53423;49.224;12.074;2023-02-01T00:13:36;98120.84;;;4.98;70.64
2841;BME280;53423;49.224;12.074;2023-02-01T00:16:06;98120.69;;;5.11;69.82
2841;BME280;53423;49.224;12.074;2023-02-01T00:18:35;98124.38;;;4.97;70.81
2841;BME280;53423;49.224;12.074;2023-02-01T00:21:03;98123.56;;;4.75;71.62
2841;BME280;53423;49.224;12.074;2023-02-01T00:23:32;98131.00;;;5.01;70.59
2841;BME280;53423;49.224;12.074;2023-02-01T00:26:01;98128.84;;;5.06;70.12
2841;BME280;53423;49.224;12.074;2023-02-01T00:28:29;98117.41;;;5.20;69.30
2841;BME280;53423;49.224;12.074;2023-02-01T00:30:58;98127.69;;;4.99;69.59
2841;BME280;53423;49.224;12.074;2023-02-01T00:33:27;98126.84;;;4.99;70.77
2841;BME280;53423;49.224;12.074;2023-02-01T00:35:56;98120.97;;;4.97;70.11
2841;BME280;53423;49.224;12.074;2023-02-01T00:38:25;98130.03;;;5.02;70.49
2841;BME280;53423;49.224;12.074;2023-02-01T00:40:53;98105.84;;;4.91;70.99
2841;BME280;53423;49.224;12.074;2023-02-01T00:43:21;98107.97;;;4.97;69.79
2841;BME280;53423;49.224;12.074;2023-02-01T00:45:48;98112.69;;;5.03;70.71
2841;BME280;53423;49.224;12.074;2023-02-01T00:48:18;98107.03;;;4.87;71.35
2841;BME280;53423;49.224;12.074;2023-02-01T00:50:46;98096.88;;;4.95;70.89
2841;BME280;53423;49.224;12.074;2023-02-01T00:53:14;98099.56;;;5.04;69.96
2841;BME280;53423;49.224;12.074;2023-02-01T00:55:44;98103.13;;;4.81;70.84
2841;BME280;53423;49.224;12.074;2023-02-01T00:58:12;98104.19;;;5.01;70.23
2841;BME280;53423;49.224;12.074;2023-02-01T01:00:40;98096.38;;;5.01;70.43
2841;BME280;53423;49.224;12.074;2023-02-01T01:03:08;98105.25;;;4.87;70.85
2841;BME280;53423;49.224;12.074;2023-02-01T01:05:47;98097.13;;;4.92;70.47
2841;BME280;53423;49.224;12.074;2023-02-01T01:08:16;98107.03;;;4.87;70.65
2841;BME280;53423;49.224;12.074;2023-02-01T01:10:43;98098.63;;;4.94;71.13
2841;BME280;53423;49.224;12.074;2023-02-01T01:13:11;98109.97;;;4.71;72.50
2841;BME280;53423;49.224;12.074;2023-02-01T01:15:39;98108.31;;;4.92;71.15
2841;BME280;53423;49.224;12.074;2023-02-01T01:18:08;98104.19;;;4.79;71.77
2841;BME280;53423;49.224;12.074;2023-02-01T01:20:37;98104.56;;;4.85;72.13
2841;BME280;53423;49.224;12.074;2023-02-01T01:23:07;98106.09;;;4.88;72.00
2841;BME280;53423;49.224;12.074;2023-02-01T01:25:37;98102.31;;;4.81;72.23
2841;BME280;53423;49.224;12.074;2023-02-01T01:28:06;98101.97;;;4.85;71.60
2841;BME280;53423;49.224;12.074;2023-02-01T01:30:34;98110.00;;;4.93;72.38
2841;BME280;53423;49.224;12.074;2023-02-01T01:33:02;98105.50;;;4.73;72.51
2841;BME280;53423;49.224;12.074;2023-02-01T01:35:30;98101.59;;;4.90;71.71
2841;BME280;53423;49.224;12.074;2023-02-01T01:37:59;98096.50;;;4.99;71.57
2841;BME280;53423;49.224;12.074;2023-02-01T01:40:29;98106.22;;;4.86;71.42
2841;BME280;53423;49.224;12.074;2023-02-01T01:42:58;98086.25;;;4.87;71.88
2841;BME280;53423;49.224;12.074;2023-02-01T01:45:27;98087.31;;;4.95;71.46
2841;BME280;53423;49.224;12.074;2023-02-01T01:47:56;98083.06;;;4.83;72.17
2841;BME280;53423;49.224;12.074;2023-02-01T01:50:28;98080.94;;;4.99;71.55
2841;BME280;53423;49.224;12.074;2023-02-01T01:52:58;98086.94;;;4.89;72.15
2841;BME280;53423;49.224;12.074;2023-02-01T01:55:32;98081.41;;;4.93;72.18
2841;BME280;53423;49.224;12.074;2023-02-01T01:58:03;98081.25;;;5.06;71.88
2841;BME280;53423;49.224;12.074;2023-02-01T02:00:32;98074.41;;;5.16;70.99
2841;BME280;53423;49.224;12.074;2023-02-01T02:03:05;98086.81;;;5.13;70.84
2841;BME280;53423;49.224;12.074;2023-02-01T02:05:36;98069.13;;;5.06;71.39
2841;BME280;53423;49.224;12.074;2023-02-01T02:08:04;98077.84;;;5.17;71.65
2841;BME280;53423;49.224;12.074;2023-02-01T02:10:33;98060.81;;;5.24;71.40
2841;BME280;53423;49.224;12.074;2023-02-01T02:13:18;98066.88;;;4.91;71.78
2841;BME280;53423;49.224;12.074;2023-02-01T02:15:57;98061.69;;;5.02;72.04
2841;BME280;53423;49.224;12.074;2023-02-01T02:18:32;98068.75;;;5.11;71.11
2841;BME280;53423;49.224;12.074;2023-02-01T02:21:15;98069.94;;;5.07;71.14
2841;BME280;53423;49.224;12.074;2023-02-01T02:24:24;98063.88;;;5.29;69.84
2841;BME280;53423;49.224;12.074;2023-02-01T02:27:21;98062.34;;;5.26;70.23
2841;BME280;53423;49.224;12.074;2023-02-01T02:33:48;98057.13;;;5.26;70.43
2841;BME280;53423;49.224;12.074;2023-02-01T02:36:25;98052.28;;;5.33;70.68
2841;BME280;53423;49.224;12.074;2023-02-01T02:39:05;98061.53;;;5.26;70.49
2841;BME280;53423;49.224;12.074;2023-02-01T02:41:42;98062.13;;;5.18;71.54
2841;BME280;53423;49.224;12.074;2023-02-01T02:44:35;98060.94;;;5.11;71.85
2841;BME280;53423;49.224;12.074;2023-02-01T02:47:28;98058.84;;;5.05;72.25
2841;BME280;53423;49.224;12.074;2023-02-01T02:50:08;98051.28;;;5.13;71.85
2841;BME280;53423;49.224;12.074;2023-02-01T02:53:00;98050.84;;;4.97;73.15
2841;BME280;53423;49.224;12.074;2023-02-01T02:55:50;98044.59;;;4.88;72.48
2841;BME280;53423;49.224;12.074;2023-02-01T02:58:19;98045.06;;;4.93;72.10
2841;BME280;53423;49.224;12.074;2023-02-01T03:01:04;98038.59;;;4.77;72.96
2841;BME280;53423;49.224;12.074;2023-02-01T03:03:50;98041.53;;;4.83;73.09
2841;BME280;53423;49.224;12.074;2023-02-01T03:06:37;98046.78;;;5.04;72.04
2841;BME280;53423;49.224;12.074;2023-02-01T03:09:10;98045.81;;;5.16;71.53
2841;BME280;53423;49.224;12.074;2023-02-01T03:11:42;98038.81;;;5.28;71.22
2841;BME280;53423;49.224;12.074;2023-02-01T03:14:32;98038.25;;;5.24;70.32
2841;BME280;53423;49.224;12.074;2023-02-01T03:17:06;98038.47;;;5.32;70.39
2841;BME280;53423;49.224;12.074;2023-02-01T03:19:39;98029.91;;;5.09;71.13
2841;BME280;53423;49.224;12.074;2023-02-01T03:22:13;98029.31;;;5.06;70.66
2841;BME280;53423;49.224;12.074;2023-02-01T03:24:44;98027.09;;;5.01;71.42
2841;BME280;53423;49.224;12.074;2023-02-01T03:27:17;98016.66;;;5.13;71.27
2841;BME280;53423;49.224;12.074;2023-02-01T03:29:49;98015.59;;;5.15;71.01
2841;BME280;53423;49.224;12.074;2023-02-01T03:32:18;98026.00;;;5.04;71.01
2841;BME280;53423;49.224;12.074;2023-02-01T03:34:47;98021.63;;;5.16;70.85
2841;BME280;53423;49.224;12.074;2023-02-01T03:37:22;98010.75;;;5.22;70.59
2841;BME280;53423;49.224;12.074;2023-02-01T03:39:56;98002.16;;;4.99;71.10
2841;BME280;53423;49.224;12.074;2023-02-01T03:42:28;98001.53;;;5.18;70.60
2841;BME280;53423;49.224;12.074;2023-02-01T03:45:03;98002.75;;;5.14;71.05
2841;BME280;53423;49.224;12.074;2023-02-01T03:47:35;98005.53;;;5.22;70.71
2841;BME280;53423;49.224;12.074;2023-02-01T03:50:07;98009.28;;;4.97;71.73
2841;BME280;53423;49.224;12.074;2023-02-01T03:52:40;98015.47;;;5.17;71.62
2841;BME280;53423;49.224;12.074;2023-02-01T03:55:10;98021.50;;;5.17;71.90
2841;BME280;53423;49.224;12.074;2023-02-01T03:57:43;98023.47;;;5.25;72.36
2841;BME280;53423;49.224;12.074;2023-02-01T04:00:16;98017.56;;;5.34;71.68
2841;BME280;53423;49.224;12.074;2023-02-01T04:02:45;98023.28;;;5.17;72.08
2841;BME280;53423;49.224;12.074;2023-02-01T04:05:14;98017.94;;;5.18;72.25
2841;BME280;53423;49.224;12.074;2023-02-01T04:07:43;98017.34;;;5.26;70.90
2841;BME280;53423;49.224;12.074;2023-02-01T04:10:11;98012.34;;;5.34;70.92
2841;BME280;53423;49.224;12.074;2023-02-01T04:12:40;98017.56;;;5.34;71.75
2841;BME280;53423;49.224;12.074;2023-02-01T04:15:09;98023.00;;;5.31;71.81
2841;BME280;53423;49.224;12.074;2023-02-01T04:17:37;98025.34;;;5.34;71.79
2841;BME280;53423;49.224;12.074;2023-02-01T04:20:05;98030.94;;;5.29;71.59
2841;BME280;53423;49.224;12.074;2023-02-01T04:22:33;98022.94;;;5.10;72.68
2841;BME280;53423;49.224;12.074;2023-02-01T04:25:03;98026.38;;;5.11;71.49
2841;BME280;53423;49.224;12.074;2023-02-01T04:27:32;98008.59;;;5.27;71.24
2841;BME280;53423;49.224;12.074;2023-02-01T04:29:59;98005.53;;;5.22;71.20
2841;BME280;53423;49.224;12.074;2023-02-01T04:32:27;98005.69;;;5.09;72.38
2841;BME280;53423;49.224;12.074;2023-02-01T04:34:55;97994.38;;;5.10;72.44
2841;BME280;53423;49.224;12.074;2023-02-01T04:37:23;97987.09;;;4.93;72.47
2841;BME280;53423;49.224;12.074;2023-02-01T04:39:50;97983.13;;;5.21;72.34
2841;BME280;53423;49.224;12.074;2023-02-01T04:42:20;97984.09;;;5.08;72.14
2841;BME280;53423;49.224;12.074;2023-02-01T04:44:47;97982.81;;;5.03;72.09
2841;BME280;53423;49.224;12.074;2023-02-01T04:47:15;97979.03;;;5.07;72.05
2841;BME280;53423;49.224;12.074;2023-02-01T04:49:43;97983.34;;;5.18;72.44
2841;BME280;53423;49.224;12.074;2023-02-01T04:52:10;97980.00;;;5.27;72.10
2841;BME280;53423;49.224;12.074;2023-02-01T04:54:38;97984.38;;;5.26;71.05
2841;BME280;53423;49.224;12.074;2023-02-01T04:57:06;97987.44;;;5.31;71.21
2841;BME280;53423;49.224;12.074;2023-02-01T04:59:35;97975.09;;;5.13;71.99
2841;BME280;53423;49.224;12.074;2023-02-01T05:02:03;97964.56;;;5.25;72.07
2841;BME280;53423;49.224;12.074;2023-02-01T05:04:31;97970.28;;;5.08;72.24
2841;BME280;53423;49.224;12.074;2023-02-01T05:06:59;97964.69;;;5.24;71.93
2841;BME280;53423;49.224;12.074;2023-02-01T05:09:26;97960.78;;;5.18;72.00
2841;BME280;53423;49.224;12.074;2023-02-01T05:11:54;97963.25;;;5.31;71.60
2841;BME280;53423;49.224;12.074;2023-02-01T05:14:41;97962.09;;;5.13;71.40
2841;BME280;53423;49.224;12.074;2023-02-01T05:17:09;97958.91;;;5.20;71.02
2841;BME280;53423;49.224;12.074;2023-02-01T05:19:36;97966.13;;;5.17;71.49
2841;BME280;53423;49.224;12.074;2023-02-01T05:22:04;97962.03;;;5.03;71.85
2841;BME280;53423;49.224;12.074;2023-02-01T05:24:32;97956.88;;;5.24;71.17
2841;BME280;53423;49.224;12.074;2023-02-01T05:27:00;97940.91;;;5.28;71.04
2841;BME280;53423;49.224;12.074;2023-02-01T05:29:27;97942.34;;;5.21;71.81
2841;BME280;53423;49.224;12.074;2023-02-01T05:31:56;97935.06;;;5.15;71.38
2841;BME280;53423;49.224;12.074;2023-02-01T05:34:37;97943.31;;;5.20;71.84
2841;BME280;53423;49.224;12.074;2023-02-01T05:37:04;97939.59;;;5.34;71.00
2841;BME280;53423;49.224;12.074;2023-02-01T05:39:33;97935.72;;;5.28;70.75
2841;BME280;53423;49.224;12.074;2023-02-01T05:42:00;97928.56;;;5.21;71.53
2841;BME280;53423;49.224;12.074;2023-02-01T05:44:28;97930.91;;;5.24;71.85
2841;BME280;53423;49.224;12.074;2023-02-01T05:46:57;97923.94;;;5.24;71.13
2841;BME280;53423;49.224;12.074;2023-02-01T05:49:25;97924.56;;;5.17;71.39
2841;BME280;53423;49.224;12.074;2023-02-01T05:51:53;97924.56;;;5.37;70.98
2841;BME280;53423;49.224;12.074;2023-02-01T05:54:20;97923.00;;;5.46;70.59
2841;BME280;53423;49.224;12.074;2023-02-01T05:56:48;97927.09;;;5.48;71.28
2841;BME280;53423;49.224;12.074;2023-02-01T05:59:16;97927.41;;;5.55;70.83
2841;BME280;53423;49.224;12.074;2023-02-01T06:01:44;97926.66;;;5.43;70.95
2841;BME280;53423;49.224;12.074;2023-02-01T06:04:13;97934.19;;;5.46;71.02
2841;BME280;53423;49.224;12.074;2023-02-01T06:06:40;97948.28;;;5.44;70.83
2841;BME280;53423;49.224;12.074;2023-02-01T06:09:08;97942.38;;;5.42;71.08
2841;BME280;53423;49.224;12.074;2023-02-01T06:11:36;97953.50;;;5.33;70.62
2841;BME280;53423;49.224;12.074;2023-02-01T06:14:04;97949.84;;;5.35;70.01
2841;BME280;53423;49.224;12.074;2023-02-01T06:16:34;97946.63;;;5.22;70.24
2841;BME280;53423;49.224;12.074;2023-02-01T06:19:02;97950.66;;;5.15;71.24
2841;BME280;53423;49.224;12.074;2023-02-01T06:21:31;97949.22;;;4.90;72.19
2841;BME280;53423;49.224;12.074;2023-02-01T06:23:59;97960.91;;;4.74;72.64
2841;BME280;53423;49.224;12.074;2023-02-01T06:26:27;97952.66;;;4.69;73.35
2841;BME280;53423;49.224;12.074;2023-02-01T06:28:55;97961.03;;;4.83;72.66
2841;BME280;53423;49.224;12.074;2023-02-01T06:31:23;97972.97;;;4.64;72.36
2841;BME280;53423;49.224;12.074;2023-02-01T06:33:51;97972.59;;;4.79;72.28
2841;BME280;53423;49.224;12.074;2023-02-01T06:36:20;97980.97;;;4.83;71.65
2841;BME280;53423;49.224;12.074;2023-02-01T06:38:49;97974.06;;;4.61;71.22
2841;BME280;53423;49.224;12.074;2023-02-01T06:41:17;97972.91;;;4.32;72.21
2841;BME280;53423;49.224;12.074;2023-02-01T06:43:46;97971.59;;;4.27;72.03
2841;BME280;53423;49.224;12.074;2023-02-01T06:46:14;97968.66;;;4.31;72.42
2841;BME280;53423;49.224;12.074;2023-02-01T06:48:42;97983.75;;;4.26;71.68
2841;BME280;53423;49.224;12.074;2023-02-01T06:51:19;97993.66;;;3.53;74.23
2841;BME280;53423;49.224;12.074;2023-02-01T06:53:48;97965.06;;;3.66;74.90
2841;BME280;53423;49.224;12.074;2023-02-01T06:56:16;97965.19;;;3.87;72.89
2841;BME280;53423;49.224;12.074;2023-02-01T06:58:44;97969.97;;;4.15;72.42
2841;BME280;53423;49.224;12.074;2023-02-01T07:01:12;97980.22;;;4.27;71.95
2841;BME280;53423;49.224;12.074;2023-02-01T07:03:40;97993.78;;;4.42;71.98
2841;BME280;53423;49.224;12.074;2023-02-01T07:06:09;97976.56;;;4.30;71.59
2841;BME280;53423;49.224;12.074;2023-02-01T07:08:37;97960.66;;;4.23;73.01
2841;BME280;53423;49.224;12.074;2023-02-01T07:11:08;97965.47;;;4.17;72.41
2841;BME280;53423;49.224;12.074;2023-02-01T07:13:36;97948.84;;;3.97;72.90
2841;BME280;53423;49.224;12.074;2023-02-01T07:16:06;97952.63;;;4.26;72.84
2841;BME280;53423;49.224;12.074;2023-02-01T07:18:36;97953.78;;;4.44;71.67
2841;BME280;53423;49.224;12.074;2023-02-01T07:21:03;97955.78;;;4.52;72.53
2841;BME280;53423;49.224;12.074;2023-02-01T07:23:31;97968.75;;;4.63;71.10
2841;BME280;53423;49.224;12.074;2023-02-01T07:26:00;97965.91;;;4.66;71.56
2841;BME280;53423;49.224;12.074;2023-02-01T07:28:32;97968.25;;;4.69;71.62
2841;BME280;53423;49.224;12.074;2023-02-01T07:31:03;97974.16;;;4.71;71.03
2841;BME280;53423;49.224;12.074;2023-02-01T07:33:31;97970.25;;;4.76;71.55
2841;BME280;53423;49.224;12.074;2023-02-01T07:36:01;97966.72;;;4.66;70.77
2841;BME280;53423;49.224;12.074;2023-02-01T07:38:29;97971.22;;;4.64;70.86
2841;BME280;53423;49.224;12.074;2023-02-01T07:40:57;97957.19;;;4.67;71.20
2841;BME280;53423;49.224;12.074;2023-02-01T07:43:26;97960.84;;;4.64;71.47
2841;BME280;53423;49.224;12.074;2023-02-01T07:45:56;97971.56;;;4.71;71.12
2841;BME280;53423;49.224;12.074;2023-02-01T07:48:25;97967.06;;;4.73;71.78
2841;BME280;53423;49.224;12.074;2023-02-01T07:50:57;97966.28;;;4.61;72.39
2841;BME280;53423;49.224;12.074;2023-02-01T07:53:26;97962.13;;;4.59;71.95
2841;BME280;53423;49.224;12.074;2023-02-01T07:55:54;97953.03;;;4.75;71.13
2841;BME280;53423;49.224;12.074;2023-02-01T07:58:23;97955.00;;;4.83;71.16
2841;BME280;53423;49.224;12.074;2023-02-01T08:00:52;97954.69;;;4.65;71.94
2841;BME280;53423;49.224;12.074;2023-02-01T08:03:39;97956.56;;;4.74;71.09
2841;BME280;53423;49.224;12.074;2023-02-01T08:06:07;97960.06;;;4.84;71.62
2841;BME280;53423;49.224;12.074;2023-02-01T08:08:35;97963.63;;;4.83;70.97
2841;BME280;53423;49.224;12.074;2023-02-01T08:11:05;97971.69;;;4.80;71.92
2841;BME280;53423;49.224;12.074;2023-02-01T08:13:33;97971.84;;;4.99;71.08
2841;BME280;53423;49.224;12.074;2023-02-01T08:16:03;97967.22;;;5.14;70.26
2841;BME280;53423;49.224;12.074;2023-02-01T08:18:32;97970.47;;;5.16;70.22
2841;BME280;53423;49.224;12.074;2023-02-01T08:21:04;97967.88;;;5.16;69.89
2841;BME280;53423;49.224;12.074;2023-02-01T08:23:33;97956.56;;;5.17;70.29
2841;BME280;53423;49.224;12.074;2023-02-01T08:26:06;97946.88;;;5.19;70.42
2841;BME280;53423;49.224;12.074;2023-02-01T08:28:34;97945.72;;;5.33;70.79
2841;BME280;53423;49.224;12.074;2023-02-01T08:31:05;97947.31;;;5.45;70.40
2841;BME280;53423;49.224;12.074;2023-02-01T08:33:33;97947.47;;;5.64;69.50
2841;BME280;53423;49.224;12.074;2023-02-01T08:36:05;97946.88;;;5.60;70.42
2841;BME280;53423;49.224;12.074;2023-02-01T08:38:34;97938.50;;;5.57;70.34
2841;BME280;53423;49.224;12.074;2023-02-01T08:41:08;97941.06;;;5.68;70.84
2841;BME280;53423;49.224;12.074;2023-02-01T08:43:36;97939.28;;;5.68;70.54
2841;BME280;53423;49.224;12.074;2023-02-01T08:46:05;97935.88;;;5.68;71.08
2841;BME280;53423;49.224;12.074;2023-02-01T08:48:34;97934.50;;;5.73;70.40
2841;BME280;53423;49.224;12.074;2023-02-01T08:51:04;97929.63;;;5.80;69.68
2841;BME280;53423;49.224;12.074;2023-02-01T08:53:32;97922.78;;;5.99;70.59
2841;BME280;53423;49.224;12.074;2023-02-01T08:56:00;97928.75;;;6.20;69.08
2841;BME280;53423;49.224;12.074;2023-02-01T08:58:28;97936.78;;;6.38;69.22
2841;BME280;53423;49.224;12.074;2023-02-01T09:00:55;97919.91;;;6.42;69.04
2841;BME280;53423;49.224;12.074;2023-02-01T09:03:23;97929.03;;;6.67;68.34
2841;BME280;53423;49.224;12.074;2023-02-01T09:05:51;97939.69;;;6.54;68.86
2841;BME280;53423;49.224;12.074;2023-02-01T09:08:21;97948.97;;;6.47;67.53
2841;BME280;53423;49.224;12.074;2023-02-01T09:10:49;97953.22;;;6.08;69.44
2841;BME280;53423;49.224;12.074;2023-02-01T09:13:16;97964.34;;;6.20;68.70
2841;BME280;53423;49.224;12.074;2023-02-01T09:15:44;97964.72;;;6.06;68.86
2841;BME280;53423;49.224;12.074;2023-02-01T09:18:12;97968.16;;;6.06;68.87
2841;BME280;53423;49.224;12.074;2023-02-01T09:20:40;97970.78;;;6.16;68.66
2841;BME280;53423;49.224;12.074;2023-02-01T09:23:07;97967.16;;;5.98;70.29
2841;BME280;53423;49.224;12.074;2023-02-01T09:25:38;97974.28;;;6.05;69.28
2841;BME280;53423;49.224;12.074;2023-02-01T09:28:05;97978.75;;;5.94;69.28
2841;BME280;53423;49.224;12.074;2023-02-01T09:30:36;97977.34;;;5.90;68.26
2841;BME280;53423;49.224;12.074;2023-02-01T09:33:04;97969.44;;;6.21;67.63
2841;BME280;53423;49.224;12.074;2023-02-01T09:35:32;97975.28;;;6.44;66.28
2841;BME280;53423;49.224;12.074;2023-02-01T09:38:00;97966.00;;;6.51;65.95
2841;BME280;53423;49.224;12.074;2023-02-01T09:40:27;97975.81;;;6.38;67.56
2841;BME280;53423;49.224;12.074;2023-02-01T09:43:11;97970.81;;;6.25;67.32
2841;BME280;53423;49.224;12.074;2023-02-01T09:45:46;97980.09;;;6.18;66.43
2841;BME280;53423;49.224;12.074;2023-02-01T09:48:19;97975.56;;;6.41;66.68
2841;BME280;53423;49.224;12.074;2023-02-01T09:50:52;97969.75;;;6.28;66.43
2841;BME280;53423;49.224;12.074;2023-02-01T09:53:24;97977.69;;;6.26;66.89
2841;BME280;53423;49.224;12.074;2023-02-01T09:55:55;97973.25;;;6.17;66.49
2841;BME280;53423;49.224;12.074;2023-02-01T09:58:30;97986.25;;;5.87;67.49
2841;BME280;53423;49.224;12.074;2023-02-01T10:01:01;97989.22;;;6.33;66.39
2841;BME280;53423;49.224;12.074;2023-02-01T10:03:31;97991.69;;;6.35;65.89
2841;BME280;53423;49.224;12.074;2023-02-01T10:06:10;97990.56;;;6.58;66.17
2841;BME280;53423;49.224;12.074;2023-02-01T10:09:02;97990.50;;;6.49;66.22
2841;BME280;53423;49.224;12.074;2023-02-01T10:11:41;97995.13;;;6.15;67.41
2841;BME280;53423;49.224;12.074;2023-02-01T10:17:18;97987.66;;;6.21;68.43
2841;BME280;53423;49.224;12.074;2023-02-01T10:19:55;98002.69;;;5.77;69.61
2841;BME280;53423;49.224;12.074;2023-02-01T10:22:39;98005.69;;;5.72;70.85
2841;BME280;53423;49.224;12.074;2023-02-01T10:25:31;98010.38;;;5.58;71.58
2841;BME280;53423;49.224;12.074;2023-02-01T10:28:04;98024.16;;;5.69;71.44
2841;BME280;53423;49.224;12.074;2023-02-01T10:30:38;98020.41;;;5.20;72.22
2841;BME280;53423;49.224;12.074;2023-02-01T10:33:15;98031.19;;;5.15;72.19
2841;BME280;53423;49.224;12.074;2023-02-01T10:35:45;98041.59;;;5.04;71.36
2841;BME280;53423;49.224;12.074;2023-02-01T10:38:17;98045.16;;;5.03;70.74
2841;BME280;53423;49.224;12.074;2023-02-01T10:40:47;98049.75;;;4.99;71.28
2841;BME280;53423;49.224;12.074;2023-02-01T10:43:15;98052.16;;;4.69;71.89
2841;BME280;53423;49.224;12.074;2023-02-01T10:45:44;98041.19;;;4.77;72.04
2841;BME280;53423;49.224;12.074;2023-02-01T10:48:13;98041.53;;;4.61;73.42
2841;BME280;53423;49.224;12.074;2023-02-01T10:50:48;98040.06;;;5.01;71.64
2841;BME280;53423;49.224;12.074;2023-02-01T10:53:21;98038.66;;;5.08;71.78
2841;BME280;53423;49.224;12.074;2023-02-01T10:55:52;98019.44;;;5.63;69.25
2841;BME280;53423;49.224;12.074;2023-02-01T10:58:26;98027.28;;;5.84;68.64
2841;BME280;53423;49.224;12.074;2023-02-01T11:00:58;98022.25;;;6.33;66.56
2841;BME280;53423;49.224;12.074;2023-02-01T11:03:34;98024.03;;;7.12;64.97
2841;BME280;53423;49.224;12.074;2023-02-01T11:06:11;98026.19;;;6.58;67.18
2841;BME280;53423;49.224;12.074;2023-02-01T11:08:44;98024.44;;;7.17;64.50
2841;BME280;53423;49.224;12.074;2023-02-01T11:11:12;98029.13;;;7.42;63.43
2841;BME280;53423;49.224;12.074;2023-02-01T11:13:41;98020.94;;;6.97;64.00
2841;BME280;53423;49.224;12.074;2023-02-01T11:16:13;98025.44;;;6.76;64.00
2841;BME280;53423;49.224;12.074;2023-02-01T11:18:42;98019.38;;;6.76;63.73
2841;BME280;53423;49.224;12.074;2023-02-01T11:21:10;98013.00;;;6.19;65.35
2841;BME280;53423;49.224;12.074;2023-02-01T11:23:42;98008.69;;;6.39;65.96
2841;BME280;53423;49.224;12.074;2023-02-01T11:26:13;98015.50;;;6.30;65.80
2841;BME280;53423;49.224;12.074;2023-02-01T11:28:50;97997.41;;;6.29;65.65
2841;BME280;53423;49.224;12.074;2023-02-01T11:31:20;97999.16;;;6.49;65.71
2841;BME280;53423;49.224;12.074;2023-02-01T11:33:52;97995.88;;;7.06;64.24
2841;BME280;53423;49.224;12.074;2023-02-01T11:36:23;97997.69;;;6.66;66.06
2841;BME280;53423;49.224;12.074;2023-02-01T11:39:07;97990.56;;;7.26;62.83
2841;BME280;53423;49.224;12.074;2023-02-01T11:41:41;97985.25;;;6.79;65.57
2841;BME280;53423;49.224;12.074;2023-02-01T11:44:21;97984.03;;;6.73;64.83
2841;BME280;53423;49.224;12.074;2023-02-01T11:46:50;97976.50;;;6.80;64.99
2841;BME280;53423;49.224;12.074;2023-02-01T11:49:21;97969.44;;;6.61;64.83
2841;BME280;53423;49.224;12.074;2023-02-01T11:51:59;97945.38;;;6.78;64.46
2841;BME280;53423;49.224;12.074;2023-02-01T11:54:40;97958.56;;;7.72;62.45
2841;BME280;53423;49.224;12.074;2023-02-01T11:57:25;97963.53;;;7.37;62.28
2841;BME280;53423;49.224;12.074;2023-02-01T12:00:06;97951.31;;;7.28;63.04
2841;BME280;53423;49.224;12.074;2023-02-01T12:02:51;97939.50;;;7.14;63.33
2841;BME280;53423;49.224;12.074;2023-02-01T12:05:32;97946.22;;;7.07;63.19
2841;BME280;53423;49.224;12.074;2023-02-01T12:08:18;97940.03;;;6.80;64.00
2841;BME280;53423;49.224;12.074;2023-02-01T12:11:02;97940.81;;;6.61;65.48
2841;BME280;53423;49.224;12.074;2023-02-01T12:13:41;97939.19;;;6.70;65.55
2841;BME280;53423;49.224;12.074;2023-02-01T12:16:19;97932.72;;;6.74;65.42
2841;BME280;53423;49.224;12.074;2023-02-01T12:19:11;97932.66;;;7.23;64.78
2841;BME280;53423;49.224;12.074;2023-02-01T12:21:55;97923.19;;;7.31;63.74
2841;BME280;53423;49.224;12.074;2023-02-01T12:24:40;97928.44;;;7.87;61.36
2841;BME280;53423;49.224;12.074;2023-02-01T12:27:36;97927.72;;;8.41;58.53
2841;BME280;53423;49.224;12.074;2023-02-01T12:30:37;97929.28;;;8.34;57.45
2841;BME280;53423;49.224;12.074;2023-02-01T12:33:18;97927.50;;;7.79;59.27
2841;BME280;53423;49.224;12.074;2023-02-01T12:36:12;97935.41;;;7.21;61.41
2841;BME280;53423;49.224;12.074;2023-02-01T12:38:57;97927.69;;;7.01;60.35
2841;BME280;53423;49.224;12.074;2023-02-01T12:41:44;97923.00;;;7.62;59.24
2841;BME280;53423;49.224;12.074;2023-02-01T12:44:24;97927.94;;;7.65;59.93
2841;BME280;53423;49.224;12.074;2023-02-01T12:46:56;97923.88;;;7.24;59.63
2841;BME280;53423;49.224;12.074;2023-02-01T12:49:32;97921.28;;;6.95;61.07
2841;BME280;53423;49.224;12.074;2023-02-01T12:52:07;97927.84;;;7.28;59.92
2841;BME280;53423;49.224;12.074;2023-02-01T12:54:43;97920.56;;;7.50;59.91
2841;BME280;53423;49.224;12.074;2023-02-01T12:57:16;97918.09;;;7.49;58.67
2841;BME280;53423;49.224;12.074;2023-02-01T12:59:49;97925.50;;;6.96;60.26
2841;BME280;53423;49.224;12.074;2023-02-01T13:02:24;97917.97;;;7.12;60.07
2841;BME280;53423;49.224;12.074;2023-02-01T13:05:00;97921.81;;;7.18;59.84
2841;BME280;53423;49.224;12.074;2023-02-01T13:07:36;97925.53;;;7.15;60.14
2841;BME280;53423;49.224;12.074;2023-02-01T13:10:15;97917.41;;;6.90;60.54
2841;BME280;53423;49.224;12.074;2023-02-01T13:12:50;97915.81;;;6.40;61.95
2841;BME280;53423;49.224;12.074;2023-02-01T13:15:23;97926.81;;;6.53;61.16
2841;BME280;53423;49.224;12.074;2023-02-01T13:17:55;97920.34;;;6.47;61.61
2841;BME280;53423;49.224;12.074;2023-02-01T13:20:29;97924.19;;;6.53;62.38
2841;BME280;53423;49.224;12.074;2023-02-01T13:23:03;97919.22;;;6.40;62.68
2841;BME280;53423;49.224;12.074;2023-02-01T13:25:35;97911.31;;;6.42;63.20
2841;BME280;53423;49.224;12.074;2023-02-01T13:28:10;97917.28;;;6.32;62.81
2841;BME280;53423;49.224;12.074;2023-02-01T13:30:57;97911.09;;;6.24;63.25
2841;BME280;53423;49.224;12.074;2023-02-01T13:33:40;97915.56;;;6.52;62.41
2841;BME280;53423;49.224;12.074;2023-02-01T13:36:30;97920.78;;;6.12;62.48
2841;BME280;53423;49.224;12.074;2023-02-01T13:39:28;97915.19;;;6.17;61.95
2841;BME280;53423;49.224;12.074;2023-02-01T13:42:05;97913.44;;;6.27;62.82
2841;BME280;53423;49.224;12.074;2023-02-01T13:44:43;97919.00;;;6.13;63.92